Flight Track Log - Related Links

Times and Time Zones

All times are in EDT time to prevent confusion due to time zone crossing. See the CTL13 flight status page for this flight to view local times or setup timezone preferences in your user account.

Time Position Orientation Groundspeed Altitude Reporting Facility
EDT Latitude Longitude Course Direction KTS MPH feet Rate Location/Type
Mon 18:42:27 41.5125 -81.6950 305° West 129 148 800  Level Cleveland Center
Mon 18:43:10 41.5269 -81.7231 305° West 143 165 1,400 757 Climbing Cleveland Center
Mon 18:44:10 41.5494 -81.7678 304° West 146 168 2,100 595 Climbing Cleveland Center
Mon 18:45:11 41.5656 -81.8153 294° West 139 160 2,600 582 Climbing Cleveland Center
Mon 18:46:24 41.5817 -81.8739 290° West 136 157 3,400 632 Climbing Cleveland Center
Mon 18:47:24 41.5875 -81.9183 280° West 117 135 4,000 545 Climbing Cleveland Center
Mon 18:48:25 41.5725 -81.9514 239° Southwest 110 127 4,500 440 Climbing Cleveland Center
Mon 18:49:13 41.5575 -81.9817 237° Southwest 114 131 4,800 385 Climbing Cleveland Center
Mon 18:50:14 41.5422 -82.0203 242° Southwest 113 130 5,200 393 Climbing Cleveland Center
Mon 18:51:15 41.5272 -82.0558 241° Southwest 112 129 5,600 344 Climbing Cleveland Center
Mon 18:52:16 41.5122 -82.0944 243° Southwest 117 135 5,900 397 Climbing Cleveland Center
Mon 18:53:16 41.4972 -82.1300 241° Southwest 116 133 6,400 470 Climbing Cleveland Center
Mon 18:54:11 41.4819 -82.1658 240° Southwest 113 130 6,800 470 Climbing Cleveland Center
Mon 18:55:11 41.4669 -82.2014 241° Southwest 112 129 7,300 69 Climbing Cleveland Center
Mon 18:57:00 41.4231 -82.2584 241° Southwest  Level FlightAware Approximate
Mon 19:04:00 41.3063 -82.5399 239° Southwest  Level FlightAware Approximate
Mon 19:05:00 41.2887 -82.5794 239° Southwest  Level FlightAware Approximate
Mon 19:06:00 41.2711 -82.6189 239° Southwest  Level FlightAware Approximate
Mon 19:07:00 41.2535 -82.6583 239° Southwest  Level FlightAware Approximate
Mon 19:08:00 41.2359 -82.6977 239° Southwest  Level FlightAware Approximate
Mon 19:09:00 41.2183 -82.7371 239° Southwest  Level FlightAware Approximate
Mon 19:10:00 41.2006 -82.7765 239° Southwest  Level FlightAware Approximate
Mon 19:11:00 41.1829 -82.8159 239° Southwest  Level FlightAware Approximate
Mon 19:11:27 41.2133 -82.8281 237° Southwest 122 140 8,000  Level Indianapolis Center
Mon 19:12:00 41.1653 -82.8552 239° Southwest  Level FlightAware Approximate
Mon 19:12:29 41.1953 -82.8681 239° Southwest 125 144 8,000  Level Indianapolis Center
Mon 19:13:00 41.1476 -82.8945 239° Southwest  Level FlightAware Approximate
Mon 19:13:31 41.1792 -82.9069 241° Southwest 120 138 8,100  Level Indianapolis Center
Mon 19:14:00 41.1299 -82.9338 239° Southwest  Level FlightAware Approximate
Mon 19:14:32 41.1592 -82.9522 240° Southwest 120 138 8,100  Level Indianapolis Center
Mon 19:15:00 41.1121 -82.9731 239° Southwest  Level FlightAware Approximate
Mon 19:15:34 41.1425 -82.9931 242° Southwest 123 142 8,100  Level Indianapolis Center
Mon 19:16:00 41.0940 -83.0120 237° Southwest  Level FlightAware Approximate
Mon 19:16:36 41.1253 -83.0317 239° Southwest 122 140 8,100  Level Indianapolis Center
Mon 19:17:37 41.1092 -83.0706 241° Southwest 121 139 8,100  Level Indianapolis Center
Mon 19:18:39 41.0933 -83.1128 244° Southwest 124 143 8,100 -48 Level Indianapolis Center
Mon 19:19:41 41.0739 -83.1528 237° Southwest 127 146 8,000  Descending Indianapolis Center
Mon 19:20:42 41.0569 -83.1933 241° Southwest 126 145 8,100  Climbing Indianapolis Center
Mon 19:21:44 41.0392 -83.2331 239° Southwest 125 144 8,000 -48 Descending Indianapolis Center
Mon 19:22:46 41.0203 -83.2706 236° Southwest 123 142 8,000 48 Level Indianapolis Center
Mon 19:23:48 41.0008 -83.3153 240° Southwest 120 138 8,100  Climbing Indianapolis Center
Mon 19:24:49 40.9836 -83.3547 240° Southwest 122 140 8,000  Descending Indianapolis Center
Mon 19:25:51 40.9669 -83.3944 241° Southwest 123 142 8,100 48 Climbing Indianapolis Center
Mon 19:26:53 40.9489 -83.4336 239° Southwest 123 142 8,100  Level Indianapolis Center
Mon 19:27:54 40.9317 -83.4719 239° Southwest 121 139 8,100  Level Indianapolis Center
Mon 19:28:56 40.9139 -83.5114 239° Southwest 119 137 8,100  Level Indianapolis Center
Mon 19:29:58 40.8986 -83.5494 242° Southwest 117 135 8,100  Level Indianapolis Center
Mon 19:30:59 40.8819 -83.5892 241° Southwest 121 139 8,100 -49 Level Indianapolis Center
Mon 19:32:01 40.8633 -83.6292 238° Southwest 126 145 8,000 -49 Descending Indianapolis Center
Mon 19:33:02 40.8458 -83.6694 240° Southwest 125 144 8,000  Level Indianapolis Center
Mon 19:34:04 40.8275 -83.7092 239° Southwest 125 144 8,000  Level Indianapolis Center
Mon 19:35:06 40.8100 -83.7494 240° Southwest 125 144 8,000  Level Indianapolis Center
Mon 19:36:07 40.7928 -83.7864 238° Southwest 120 138 8,000  Level Indianapolis Center
Mon 19:37:09 40.7728 -83.8308 239° Southwest 119 137 8,000  Level Indianapolis Center
Mon 19:38:10 40.7550 -83.8692 239° Southwest 122 140 8,000  Level Indianapolis Center
Mon 19:39:12 40.7367 -83.9072 238° Southwest 122 140 8,000  Level Indianapolis Center
Mon 19:40:14 40.7181 -83.9467 238° Southwest 126 145 8,000  Level Indianapolis Center
Mon 19:41:15 40.7017 -83.9872 242° Southwest 125 144 8,000  Level Indianapolis Center
Mon 19:42:17 40.6872 -84.0278 245° Southwest 122 140 8,000  Level Indianapolis Center
Mon 19:43:18 40.6728 -84.0694 245° Southwest 123 142 8,000  Level Indianapolis Center
Mon 19:44:20 40.6575 -84.1100 244° Southwest 123 142 8,000 63 Level Indianapolis Center
Mon 19:44:53 40.6489 -84.1364 247° West 123 142 8,100  Climbing Indianapolis Center
Mon 19:45:21 40.6422 -84.1514 240° Southwest 124 143 8,000  Descending Indianapolis Center
Mon 19:45:47 40.6311 -84.1753 239° Southwest 126 145 8,100 -97 Climbing Indianapolis Center
Mon 19:46:23 40.6258 -84.1922 248° West 125 144 7,900 -90 Descending Indianapolis Center
Mon 19:46:54 40.6150 -84.2200 243° Southwest 126 145 8,000  Climbing Indianapolis Center
Mon 19:47:24 40.6067 -84.2414 243° Southwest 127 146 7,900  Descending Indianapolis Center
Mon 19:47:55 40.5969 -84.2642 241° Southwest 128 147 8,000  Climbing Indianapolis Center
Mon 19:48:26 40.5911 -84.2844 249° West 128 147 7,900  Descending Indianapolis Center
Mon 19:48:55 40.5831 -84.3064 244° Southwest 128 147 8,000 -98 Climbing Indianapolis Center
Mon 19:49:27 40.5764 -84.3275 247° West 128 147 7,800 -98 Descending Indianapolis Center
Mon 19:49:56 40.5669 -84.3508 242° Southwest 129 148 7,900  Climbing Indianapolis Center
Mon 19:50:29 40.5600 -84.3711 246° West 131 151 7,800  Descending Indianapolis Center
Mon 19:50:57 40.5511 -84.3928 242° Southwest 131 151 7,900 98 Climbing Indianapolis Center
Mon 19:51:30 40.5453 -84.4136 250° West 128 147 7,900 100 Level Indianapolis Center
Mon 19:51:57 40.5372 -84.4347 243° Southwest 127 146 8,000  Climbing Indianapolis Center
Mon 19:52:32 40.5306 -84.4564 248° West 127 146 7,900  Descending Indianapolis Center
Mon 19:52:58 40.5233 -84.4767 245° Southwest 127 146 8,000  Climbing Indianapolis Center
Mon 19:53:33 40.5147 -84.5003 244° Southwest 131 151 7,900  Descending Indianapolis Center
Mon 19:53:52 40.5053 -84.5208 239° Southwest 166 191 8,000 97 Climbing Indianapolis Center
Mon 19:54:35 40.4975 -84.5447 247° West 134 154 8,000  Level Indianapolis Center
Mon 19:54:53 40.4914 -84.5603 243° Southwest 123 142 8,000  Level Indianapolis Center
Mon 19:55:36 40.4831 -84.5867 247° West 127 146 8,000 98 Level Indianapolis Center
Mon 19:55:54 40.4756 -84.6019 237° Southwest 130 150 8,100  Climbing Indianapolis Center
Mon 19:56:37 40.4658 -84.6306 246° West 132 152 8,000 -100 Descending Indianapolis Center
Mon 19:56:54 40.4572 -84.6461 234° Southwest 140 161 8,000  Level Indianapolis Center
Mon 19:57:39 40.4489 -84.6744 249° West 134 154 8,000  Level Indianapolis Center
Mon 19:58:01 40.4403 -84.6986 245° Southwest 135 155 8,000  Level Indianapolis Center
Mon 19:58:40 40.4331 -84.7192 245° Southwest 134 154 8,000  Level Indianapolis Center
Mon 19:58:56 40.4267 -84.7378 246° West 132 152 8,000  Level Indianapolis Center
Mon 19:59:42 40.4147 -84.7711 245° Southwest 134 154 8,000  Level Indianapolis Center
Mon 20:00:03 40.4081 -84.7844 237° Southwest 131 151 8,000  Level Indianapolis Center
Mon 20:00:43 40.3975 -84.8144 245° Southwest 134 154 8,000 52 Level Indianapolis Center
Mon 20:01:58 40.3758 -84.8675 242° Southwest 133 153 8,100 49 Climbing Indianapolis Center
Mon 20:02:46 40.3631 -84.9022 244° Southwest 134 154 8,100 -52 Level Indianapolis Center
Mon 20:03:53 40.3458 -84.9511 245° Southwest 135 155 8,000  Descending Indianapolis Center
Mon 20:04:49 40.3317 -84.9886 244° Southwest 134 154 8,100 51 Climbing Indianapolis Center
Mon 20:05:50 40.3147 -85.0322 243° Southwest 134 154 8,100  Level Indianapolis Center
Mon 20:06:52 40.2828 -85.0586 212° Southwest 157 181 8,100 -49 Level Indianapolis Center
Mon 20:07:53 40.2308 -85.0544 176° South 165 190 8,000 -49 Descending Indianapolis Center
Mon 20:08:55 40.1836 -85.0503 176° South 166 191 8,000 49 Level Indianapolis Center
Mon 20:09:56 40.1394 -85.0586 188° South 161 185 8,100 49 Climbing Indianapolis Center
Mon 20:10:58 40.0939 -85.0650 186° South 162 186 8,100 -49 Level Indianapolis Center
Mon 20:11:59 40.0522 -85.0811 196° South 158 182 8,000 -49 Descending Indianapolis Center
Mon 20:13:01 40.0336 -85.1192 237° Southwest 140 161 8,000 49 Level Indianapolis Center
Mon 20:14:02 40.0267 -85.1675 259° West 134 154 8,100 49 Climbing Indianapolis Center
Mon 20:15:04 40.0181 -85.2133 256° West 131 151 8,100 -48 Level Indianapolis Center
Mon 20:16:06 40.0106 -85.2600 258° West 130 150 8,000 -49 Descending Indianapolis Center
Mon 20:17:07 40.0039 -85.3069 260° West 131 151 8,000 -293 Level Indianapolis Center
Mon 20:18:09 39.9956 -85.3567 258° West 138 159 7,400 -634 Descending Indianapolis Center
Mon 20:19:10 39.9839 -85.4203 257° West 151 174 6,700 -634 Descending Indianapolis Center
Mon 20:20:12 39.9733 -85.4758 256° West 155 178 6,100 -634 Descending Indianapolis Center
Mon 20:21:13 39.9628 -85.5331 256° West 158 182 5,400 -585 Descending Indianapolis Center
Mon 20:22:15 39.9531 -85.5908 258° West 161 185 4,900 -532 Descending Indianapolis Center
Mon 20:23:17 39.9433 -85.6475 257° West 160 184 4,300 -439 Descending Indianapolis Center
Mon 20:24:18 39.9347 -85.7008 258° West 155 178 4,000 -341 Descending Indianapolis Center
Mon 20:25:20 39.9272 -85.7517 259° West 148 170 3,600 -390 Descending Indianapolis Center
Mon 20:26:21 39.9169 -85.8044 256° West 147 169 3,200 -293 Descending Indianapolis Center
Mon 20:27:23 39.9067 -85.8564 256° West 148 170 3,000 -97 Descending Indianapolis Center
Mon 20:28:25 39.8975 -85.9042 256° West 142 163 3,000  Level Indianapolis Center
Mon 20:29:27 39.8881 -85.9597 258° West 137 158 3,000 -146 Level Indianapolis Center
Mon 20:30:28 39.8786 -86.0072 255° West 134 154 2,700 -244 Descending Indianapolis Center
Mon 20:31:30 39.8683 -86.0561 255° West 137 158 2,500 -244 Descending Indianapolis Center
Mon 20:32:31 39.8608 -86.1067 259° West 139 160 2,200 -341 Descending Indianapolis Center
Mon 20:33:33 39.8564 -86.1597 264° West 144 166 1,800 -387 Descending Indianapolis Center

Login

Don't have an account? Register now (free) for customized features, flight alerts, and more!